Childress, Texas
Current Conditions -  °F | °C
As of 11:53 PM on Tuesday 21 Oct 2014 (Local Time) from KCDS Reporting Station
Clear Clear  
Wind Chill: 60°   Ceiling: Unl
Heat Index: 60°   Visibility: 10mi
Dew Point: 49°   Wind: 8mph
Humidity: 67%   Direction: 150°SSE
Pressure: 30.06"   Gusts: NA
Location:  34.43°N, 100.21°W
Report Text: KCDS 220453Z AUTO 15007KT 10SM CLR 16/09 A3006 RMK AO2 SLP160 T01560094
Loading
Personal Weather Stations






























Interactive Weather Map
Tropical Storm Tracking
New forecast layout! Learn more

10-Day Weather Forecast

Advertisements
Track Severe Weather on mobile